deformed-offering
Saratoga-Weather Station Historical Data
 
Daily Summary for April 08, 2020 Units:  English    Metric   Both
Daily Weekly Monthly Yearly Custom
  Current: High: Low: Average:
Temperature: 55.8 °F 64.7 °F 46.7 °F 54.8 °F
Dew Point: 48 °F 52.2 °F 42.7 °F 47.8 °F
Humidity: 75% 92% 61.4% 78%
Wind Speed: 1.6mph 5.3mph 0mph 1.3mph
Wind Gust: 7mph 14mph - -
WindSSE - - SE
Pressure: 29.97 in 29.97 in 29.91 in -
Precipitation: 0.00 in      
Historical Graphs
 
 
Tabular Data for April 08, 2020
Time Temperature Dew Point Pressure Wind Wind Speed Wind Gust Humidity Rainfall Rate (Hourly) solar
00:04 47.3 °F 43.3 °F 29.96 in SSE 0.1 mph 1.2 mph 86% 0.00 in 0 W/m2
00:09 47.3 °F 43.3 °F 29.96 in Calm   1 mph 86% 0.00 in 0 W/m2
00:14 47.1 °F 43.1 °F 29.96 in Calm     86% 0.00 in 0 W/m2
00:19 47.1 °F 43.1 °F 29.96 in Calm     86% 0.00 in 0 W/m2
00:24 47 °F 43 °F 29.96 in Calm     86% 0.00 in 0 W/m2
00:29 46.9 °F 42.9 °F 29.97 in Calm     86% 0.00 in 0 W/m2
00:34 46.8 °F 42.8 °F 29.97 in Calm     86% 0.00 in 0 W/m2
00:39 46.8 °F 42.8 °F 29.97 in Calm     86% 0.00 in 0 W/m2
00:44 46.7 °F 42.7 °F 29.97 in Calm     86.1% 0.00 in 0 W/m2
00:49 46.7 °F 43 °F 29.97 in Calm     87% 0.00 in 0 W/m2
00:54 46.7 °F 43 °F 29.97 in Calm     87% 0.00 in 0 W/m2
00:59 46.7 °F 43 °F 29.97 in SSE 0.1 mph 2.3 mph 87% 0.00 in 0 W/m2
01:04 46.7 °F 43.3 °F 29.97 in Calm   2 mph 88% 0.00 in 0 W/m2
01:09 46.8 °F 43.4 °F 29.97 in Calm   1 mph 88% 0.00 in 0 W/m2
01:14 46.8 °F 43.4 °F 29.97 in Calm     88% 0.00 in 0 W/m2
01:19 46.8 °F 43.4 °F 29.97 in Calm     88% 0.00 in 0 W/m2
01:24 46.9 °F 43.5 °F 29.97 in Calm     88% 0.00 in 0 W/m2
01:29 47 °F 43.6 °F 29.96 in Calm     88% 0.00 in 0 W/m2
01:34 47 °F 43.8 °F 29.95 in Calm     88.6% 0.00 in 0 W/m2
01:39 47 °F 43.9 °F 29.95 in Calm     89% 0.00 in 0 W/m2
01:44 47.1 °F 43.9 °F 29.95 in Calm     88.7% 0.00 in 0 W/m2
01:49 47.1 °F 43.8 °F 29.95 in Calm     88.4% 0.00 in 0 W/m2
01:54 47.1 °F 44 °F 29.95 in Calm     88.7% 0.00 in 0 W/m2
01:59 47.3 °F 44.2 °F 29.95 in Calm     89% 0.00 in 0 W/m2
02:04 47.3 °F 44.2 °F 29.95 in Calm     89% 0.00 in 0 W/m2
02:09 47.3 °F 44.2 °F 29.95 in Calm     89% 0.00 in 0 W/m2
02:14 47.4 °F 44.3 °F 29.95 in Calm     89% 0.00 in 0 W/m2
02:19 47.4 °F 44.3 °F 29.95 in Calm     89% 0.00 in 0 W/m2
02:24 47.4 °F 44.3 °F 29.95 in Calm     89% 0.00 in 0 W/m2
02:29 47.5 °F 44.4 °F 29.95 in Calm     89% 0.00 in 0 W/m2
02:34 47.6 °F 44.4 °F 29.96 in Calm     88.8% 0.00 in 0 W/m2
02:39 47.6 °F 44.5 °F 29.96 in Calm     89% 0.00 in 0 W/m2
02:44 47.6 °F 44.5 °F 29.96 in Calm     89% 0.00 in 0 W/m2
02:49 47.6 °F 44.5 °F 29.97 in Calm     89% 0.00 in 0 W/m2
02:54 47.7 °F 44.6 °F 29.97 in Calm     89% 0.00 in 0 W/m2
02:59 47.7 °F 44.6 °F 29.97 in Calm     89% 0.00 in 0 W/m2
03:04 47.8 °F 44.7 °F 29.97 in Calm     89% 0.00 in 0 W/m2
03:09 47.9 °F 44.8 °F 29.97 in Calm     89% 0.00 in 0 W/m2
03:14 47.9 °F 44.8 °F 29.97 in Calm     89% 0.00 in 0 W/m2
03:19 47.9 °F 44.8 °F 29.97 in Calm     89% 0.00 in 0 W/m2
03:24 47.9 °F 44.8 °F 29.97 in Calm     89% 0.00 in 0 W/m2
03:29 47.9 °F 44.8 °F 29.96 in Calm     89% 0.00 in 0 W/m2
03:34 48 °F 44.9 °F 29.96 in Calm     89% 0.00 in 0 W/m2
03:39 48 °F 44.9 °F 29.96 in Calm     89% 0.00 in 0 W/m2
03:44 48 °F 44.9 °F 29.96 in Calm     89% 0.00 in 0 W/m2
03:49 48 °F 44.9 °F 29.96 in Calm     89% 0.00 in 0 W/m2
03:54 48 °F 44.9 °F 29.97 in Calm     89% 0.00 in 0 W/m2
03:59 48 °F 44.9 °F 29.97 in Calm     89% 0.00 in 0 W/m2
04:04 48 °F 44.9 °F 29.96 in Calm     89% 0.00 in 0 W/m2
04:09 48.1 °F 45 °F 29.95 in West 0.3 mph 2.3 mph 89% 0.00 in 0 W/m2
04:14 48.2 °F 45.1 °F 29.94 in West 0.3 mph 3.5 mph 89% 0.00 in 0 W/m2
04:19 48.2 °F 45.1 °F 29.93 in West 1.6 mph 6 mph 89% 0.00 in 0 W/m2
04:24 48.2 °F 45.1 °F 29.93 in WNW 0.9 mph 6 mph 89% 0.00 in 0 W/m2
04:29 48.2 °F 45.1 °F 29.92 in WNW 0.7 mph 6 mph 89% 0.00 in 0 W/m2
04:34 48.2 °F 45.1 °F 29.91 in WNW 0.4 mph 5 mph 89% 0.00 in 0 W/m2
04:39 48.3 °F 45.2 °F 29.91 in Calm   3 mph 89% 0.00 in 0 W/m2
04:44 48.3 °F 45.2 °F 29.92 in Calm     89% 0.00 in 0 W/m2
04:49 48.5 °F 45.4 °F 29.93 in ESE 1.1 mph 4 mph 89% 0.00 in 0 W/m2
04:54 48.7 °F 45.6 °F 29.94 in ESE 1.5 mph 6 mph 89% 0.00 in 0 W/m2
04:59 48.8 °F 45.7 °F 29.94 in ESE 2.3 mph 6 mph 89% 0.00 in 0 W/m2
05:04 48.9 °F 45.8 °F 29.95 in ESE 2.5 mph 6 mph 89% 0.00 in 0 W/m2
05:09 48.9 °F 45.8 °F 29.95 in ESE 0.1 mph 6 mph 89% 0.00 in 0 W/m2
05:14 48.9 °F 45.8 °F 29.95 in Calm     89% 0.00 in 0 W/m2
05:19 48.9 °F 45.8 °F 29.95 in Calm     89% 0.00 in 0 W/m2
05:24 48.9 °F 45.8 °F 29.95 in Calm     89% 0.00 in 0 W/m2
05:29 48.9 °F 45.8 °F 29.94 in Calm     89% 0.00 in 0 W/m2
05:34 48.9 °F 45.8 °F 29.94 in Calm     89% 0.00 in 0 W/m2
05:39 48.9 °F 45.8 °F 29.94 in Calm   1.2 mph 89% 0.00 in 0 W/m2
05:44 48.9 °F 45.8 °F 29.93 in Calm   1 mph 89% 0.00 in 0 W/m2
05:49 48.9 °F 45.8 °F 29.94 in Calm     89% 0.00 in 0 W/m2
05:54 48.9 °F 45.8 °F 29.94 in Calm     89% 0.00 in 0 W/m2
05:59 48.9 °F 45.8 °F 29.94 in Calm     89% 0.00 in 0 W/m2
06:04 49 °F 45.9 °F 29.94 in Calm     89% 0.00 in 0 W/m2
06:09 48.9 °F 45.8 °F 29.95 in Calm     89% 0.00 in 0 W/m2
06:14 48.9 °F 45.8 °F 29.95 in Calm     89% 0.00 in 0 W/m2
06:19 48.9 °F 45.8 °F 29.95 in Calm     89% 0.00 in 0 W/m2
06:24 48.9 °F 45.8 °F 29.95 in Calm     89% 0.00 in 0 W/m2
06:29 48.9 °F 45.8 °F 29.95 in Calm     89.1% 0.00 in 0 W/m2
06:34 48.9 °F 46.1 °F 29.95 in Calm     90% 0.00 in 0 W/m2
06:39 48.8 °F 46 °F 29.95 in Calm     90% 0.00 in 0 W/m2
06:44 48.8 °F 46 °F 29.95 in Calm     90% 0.00 in 0 W/m2
06:49 48.8 °F 46 °F 29.95 in Calm     90% 0.00 in 0 W/m2
06:54 48.8 °F 46 °F 29.95 in Calm     90% 0.00 in 0 W/m2
06:59 48.7 °F 45.9 °F 29.95 in Calm     90% 0.00 in 5 W/m2
07:04 48.6 °F 45.8 °F 29.96 in Calm     90% 0.00 in 11 W/m2
07:09 48.6 °F 45.8 °F 29.96 in Calm   1 mph 90% 0.00 in 14 W/m2
07:14 48.6 °F 45.8 °F 29.96 in West 0.2 mph 2 mph 90% 0.00 in 18 W/m2
07:19 48.6 °F 46 °F 29.95 in West 0.5 mph 2.3 mph 90.8% 0.00 in 21 W/m2
07:24 48.6 °F 46.1 °F 29.95 in West 0.4 mph 2.3 mph 91% 0.00 in 21 W/m2
07:29 48.6 °F 46.1 °F 29.95 in Calm   2 mph 91% 0.00 in 26 W/m2
07:34 48.6 °F 46.1 °F 29.95 in Calm     91% 0.00 in 32 W/m2
07:39 48.6 °F 46.1 °F 29.96 in Calm     91% 0.00 in 35 W/m2
07:44 48.6 °F 46.1 °F 29.96 in Calm     91% 0.00 in 35 W/m2
07:49 48.6 °F 46.1 °F 29.96 in Calm     91% 0.00 in 40 W/m2
07:54 48.6 °F 46.1 °F 29.96 in Calm     91% 0.00 in 62 W/m2
07:59 48.8 °F 46.3 °F 29.96 in Calm     91% 0.00 in 77 W/m2
08:04 48.8 °F 46.3 °F 29.96 in Calm     91% 0.00 in 106 W/m2
08:09 49 °F 46.6 °F 29.96 in Calm     91.6% 0.00 in 123 W/m2
08:14 49.2 °F 47 °F 29.96 in Calm     92% 0.00 in 137 W/m2
08:19 49.2 °F 47 °F 29.95 in Calm     91.8% 0.00 in 139 W/m2
08:24 49.4 °F 47.2 °F 29.95 in Calm     92% 0.00 in 132 W/m2
08:29 49.5 °F 47.3 °F 29.95 in Calm     92% 0.00 in 121 W/m2
08:34 49.5 °F 47.3 °F 29.95 in Calm     92% 0.00 in 139 W/m2
08:39 49.5 °F 47.2 °F 29.94 in Calm     91.6% 0.00 in 153 W/m2
08:44 49.5 °F 47 °F 29.94 in Calm     91% 0.00 in 153 W/m2
08:49 49.6 °F 47.1 °F 29.94 in North 0.2 mph 3.5 mph 91% 0.00 in 162 W/m2
08:54 49.6 °F 47.1 °F 29.94 in Calm   3 mph 91% 0.00 in 164 W/m2
09:04 49.9 °F 47.4 °F 29.94 in Calm   2 mph 91% 0.00 in 170 W/m2
09:09 50.1 °F 47.3 °F 29.95 in NNE 3 mph 4 mph 90% 0.00 in 206 W/m2
09:14 50.2 °F 47.2 °F 29.95 in NNE 1.7 mph 3.5 mph 89.4% 0.00 in 296 W/m2
09:19 50.4 °F 47.3 °F 29.95 in NNE 1 mph 5 mph 89% 0.00 in 266 W/m2
09:24 50.5 °F 47.4 °F 29.95 in Calm   5 mph 89% 0.00 in 230 W/m2
09:29 50.7 °F 47.5 °F 29.95 in NW 1.2 mph 5 mph 88.8% 0.00 in 255 W/m2
09:34 50.8 °F 47.3 °F 29.95 in North 1.1 mph 5 mph 87.5% 0.00 in 262 W/m2
09:39 51 °F 47 °F 29.95 in North 1.4 mph 4 mph 86.1% 0.00 in 301 W/m2
09:44 51.2 °F 46.9 °F 29.95 in North 0.8 mph 3.5 mph 85.2% 0.00 in 373 W/m2
09:49 51.4 °F 46.9 °F 29.95 in NNE 1.5 mph 4 mph 84.4% 0.00 in 373 W/m2
09:54 51.7 °F 46.8 °F 29.95 in NNE 1.6 mph 5 mph 83.4% 0.00 in 486 W/m2
09:59 52 °F 47 °F 29.96 in NE 1 mph 5 mph 83% 0.00 in 640 W/m2
10:04 52.3 °F 47.2 °F 29.96 in NNE 2.3 mph 6 mph 82.6% 0.00 in 716 W/m2
10:09 52.6 °F 46.9 °F 29.97 in NNE 2.8 mph 6 mph 80.9% 0.00 in 709 W/m2
10:14 53 °F 46.7 °F 29.97 in NNE 2.3 mph 6 mph 79.1% 0.00 in 674 W/m2
10:19 53.2 °F 46.3 °F 29.96 in NNW 1.6 mph 6 mph 77.3% 0.00 in 649 W/m2
10:24 53.5 °F 46.2 °F 29.96 in NW 0.9 mph 3.5 mph 76.1% 0.00 in 619 W/m2
10:29 53.9 °F 46.8 °F 29.96 in WSW 1.5 mph 3.5 mph 76.9% 0.00 in 391 W/m2
10:34 54.1 °F 46.8 °F 29.96 in SSW 0.1 mph 3.5 mph 76.1% 0.00 in 260 W/m2
10:39 54.3 °F 46.9 °F 29.97 in SE 1.1 mph 3.5 mph 76% 0.00 in 285 W/m2
10:44 54.5 °F 47.1 °F 29.96 in NNE 0.5 mph 3.5 mph 76% 0.00 in 322 W/m2
10:49 54.6 °F 47 °F 29.97 in NE 1.3 mph 3.5 mph 75.5% 0.00 in 399 W/m2
10:54 54.8 °F 47.4 °F 29.97 in ESE 0.6 mph 3 mph 76% 0.00 in 521 W/m2
10:57 55 °F 47.6 °F 29.97 in ESE 0.8 mph 4 mph 76% 0.00 in 521 W/m2
11:09 55.5 °F 47.7 °F 29.96 in NNE 0.6 mph 3 mph 75% 0.00 in 443 W/m2
11:14 55.7 °F 47.9 °F 29.96 in East 1.8 mph 5 mph 75% 0.00 in 556 W/m2
11:19 55.9 °F 47.9 °F 29.96 in SE 2.4 mph 6 mph 74.6% 0.00 in 556 W/m2
11:24 56.3 °F 48.4 °F 29.96 in East 2.6 mph 7 mph 74.9% 0.00 in 494 W/m2
11:29 56.6 °F 48.8 °F 29.95 in East 3.4 mph 8.1 mph 75% 0.00 in 489 W/m2
11:34 56.9 °F 49.1 °F 29.95 in East 3.5 mph 10.4 mph 75% 0.00 in 630 W/m2
11:39 57.1 °F 49 °F 29.95 in ENE 3.7 mph 10 mph 74.3% 0.00 in 642 W/m2
11:44 57.4 °F 49.1 °F 29.95 in ENE 3.5 mph 8.1 mph 73.9% 0.00 in 860 W/m2
11:49 57.7 °F 49.3 °F 29.95 in East 4.1 mph 8.1 mph 73.6% 0.00 in 860 W/m2
11:54 58.1 °F 49.9 °F 29.95 in ESE 1.6 mph 8 mph 74.2% 0.00 in 595 W/m2
11:59 58.4 °F 49.8 °F 29.95 in NNW 1.1 mph 6 mph 73% 0.00 in 528 W/m2
12:04 58.7 °F 49.7 °F 29.95 in NW 1.8 mph 6 mph 72.1% 0.00 in 598 W/m2
12:09 58.9 °F 49.7 °F 29.95 in North 1 mph 3.5 mph 71.5% 0.00 in 549 W/m2
12:14 59.2 °F 50.2 °F 29.94 in SSW 1.7 mph 3.5 mph 72% 0.00 in 549 W/m2
12:19 59.6 °F 50.6 °F 29.94 in WSW 2.2 mph 5 mph 72% 0.00 in 642 W/m2
12:24 59.9 °F 50.7 °F 29.94 in WNW 0.8 mph 5 mph 71.6% 0.00 in 672 W/m2
12:29 60.1 °F 50.7 °F 29.94 in West 1.3 mph 4 mph 70.9% 0.00 in 614 W/m2
12:34 60.3 °F 50.2 °F 29.94 in West 0.7 mph 4 mph 69.1% 0.00 in 514 W/m2
12:39 60.5 °F 50.3 °F 29.94 in East 2.5 mph 7 mph 69% 0.00 in 482 W/m2
12:44 60.8 °F 50.7 °F 29.94 in East 4.1 mph 10.4 mph 69.3% 0.00 in 589 W/m2
12:49 61.2 °F 51.1 °F 29.95 in ESE 5.2 mph 14 mph 69.5% 0.00 in 589 W/m2
12:54 61.5 °F 51.1 °F 29.95 in ESE 3.4 mph 14 mph 68.9% 0.00 in 429 W/m2
12:59 61.7 °F 51 °F 29.94 in ESE 3.8 mph 10 mph 67.9% 0.00 in 846 W/m2
13:04 61.9 °F 51.5 °F 29.94 in ESE 3.7 mph 10.4 mph 68.7% 0.00 in 1035 W/m2
13:09 62.3 °F 51.7 °F 29.94 in SE 4.3 mph 11.5 mph 68.5% 0.00 in 1021 W/m2
13:14 62.6 °F 51.7 °F 29.94 in SE 3.9 mph 14 mph 67.4% 0.00 in 1057 W/m2
13:19 63.1 °F 51.8 °F 29.94 in SE 3.8 mph 14 mph 66.5% 0.00 in 1086 W/m2
13:24 63.4 °F 52 °F 29.95 in ESE 3.3 mph 8 mph 66.6% 0.00 in 1068 W/m2
13:29 63.7 °F 51.5 °F 29.95 in ESE 4.2 mph 12 mph 64.6% 0.00 in 1015 W/m2
13:34 63.9 °F 51.5 °F 29.94 in SE 3.5 mph 12 mph 64.1% 0.00 in 727 W/m2
13:39 64 °F 51.6 °F 29.93 in ESE 3 mph 12 mph 64.1% 0.00 in 607 W/m2
13:44 64 °F 52 °F 29.93 in SE 2 mph 7 mph 64.9% 0.00 in 503 W/m2
13:49 64 °F 51.4 °F 29.93 in ESE 3.6 mph 10.4 mph 63.5% 0.00 in 472 W/m2
13:54 64 °F 50.9 °F 29.92 in ESE 3.8 mph 10 mph 62.5% 0.00 in 542 W/m2
13:59 63.9 °F 51.1 °F 29.92 in ESE 4.1 mph 9.2 mph 63% 0.00 in 551 W/m2
14:04 63.9 °F 51 °F 29.93 in ESE 4.7 mph 10.4 mph 62.9% 0.00 in 551 W/m2
14:09 63.9 °F 51.7 °F 29.93 in East 3.8 mph 11 mph 64.4% 0.00 in 575 W/m2
14:14 64 °F 51.6 °F 29.93 in ENE 4.2 mph 12 mph 63.9% 0.00 in 461 W/m2
14:19 64.2 °F 51.6 °F 29.93 in East 3.6 mph 12 mph 63.8% 0.00 in 544 W/m2
14:24 64.2 °F 51.7 °F 29.93 in ESE 4.1 mph 11.5 mph 63.9% 0.00 in 544 W/m2
14:29 64.3 °F 51.3 °F 29.93 in ESE 3.8 mph 12 mph 62.9% 0.00 in 384 W/m2
14:34 64.2 °F 51.3 °F 29.93 in ESE 3.2 mph 12 mph 63% 0.00 in 359 W/m2
14:39 64.2 °F 51.4 °F 29.93 in ESE 3.2 mph 10.4 mph 63.3% 0.00 in 343 W/m2
14:44 64.1 °F 51.7 °F 29.92 in ESE 3.3 mph 10 mph 63.9% 0.00 in 401 W/m2
14:49 64 °F 51.7 °F 29.92 in ESE 1.8 mph 7 mph 64.2% 0.00 in 287 W/m2
14:54 64 °F 51.8 °F 29.92 in East 2.8 mph 7 mph 64.4% 0.00 in 392 W/m2
14:59 64 °F 51 °F 29.92 in East 4.8 mph 8.1 mph 62.7% 0.00 in 970 W/m2
15:04 64 °F 51 °F 29.92 in East 4.3 mph 8.1 mph 62.7% 0.00 in 970 W/m2
15:09 64 °F 50.5 °F 29.92 in East 3.3 mph 7 mph 61.5% 0.00 in 415 W/m2
15:14 64 °F 50.7 °F 29.92 in ENE 3.8 mph 8.1 mph 62% 0.00 in 926 W/m2
15:19 64 °F 50.7 °F 29.92 in East 3.2 mph 8 mph 62% 0.00 in 926 W/m2
15:24 64.2 °F 51 °F 29.92 in ENE 2.3 mph 8.1 mph 62.4% 0.00 in 883 W/m2
15:29 64.2 °F 51.1 °F 29.92 in ENE 3.8 mph 10.4 mph 62.5% 0.00 in 276 W/m2
15:34 64.2 °F 50.7 °F 29.92 in NE 3.7 mph 10 mph 61.4% 0.00 in 362 W/m2
15:39 64.3 °F 51.3 °F 29.91 in East 3.2 mph 10 mph 62.7% 0.00 in 380 W/m2
15:44 64.3 °F 51.1 °F 29.91 in East 3.5 mph 11.5 mph 62.3% 0.00 in 313 W/m2
15:49 64.3 °F 51 °F 29.91 in East 4 mph 12 mph 62% 0.00 in 362 W/m2
15:54 64.2 °F 50.8 °F 29.91 in ENE 5.3 mph 11.5 mph 61.7% 0.00 in 697 W/m2
15:59 64.3 °F 51.7 °F 29.91 in ENE 4.1 mph 12 mph 63.6% 0.00 in 688 W/m2
16:04 64.3 °F 51.8 °F 29.91 in East 2.7 mph 10 mph 63.8% 0.00 in 649 W/m2
16:09 64.4 °F 51.9 °F 29.91 in ESE 4.5 mph 11.5 mph 63.9% 0.00 in 637 W/m2
16:14 64.6 °F 52 °F 29.91 in ESE 2.2 mph 12 mph 63.9% 0.00 in 632 W/m2
16:19 64.7 °F 52.2 °F 29.91 in East 3.1 mph 8.1 mph 64% 0.00 in 630 W/m2
16:24 64.7 °F 51.9 °F 29.91 in ESE 3.7 mph 8.1 mph 63.1% 0.00 in 604 W/m2
16:29 64.7 °F 51.5 °F 29.91 in East 3.2 mph 8.1 mph 62.2% 0.00 in 567 W/m2
16:34 64.7 °F 51.3 °F 29.91 in ESE 4.3 mph 8.1 mph 61.8% 0.00 in 169 W/m2
16:39 64.5 °F 51.2 °F 29.91 in East 3.3 mph 8.1 mph 62% 0.00 in 165 W/m2
16:44 64.4 °F 51.2 °F 29.91 in ESE 2.1 mph 8 mph 62.2% 0.00 in 192 W/m2
16:49 64.3 °F 51.4 °F 29.91 in ESE 2.7 mph 6 mph 63% 0.00 in 243 W/m2
16:54 64.2 °F 51.7 °F 29.91 in ESE 3.2 mph 8.1 mph 63.9% 0.00 in 243 W/m2
16:59 63.9 °F 51.5 °F 29.91 in ESE 3.6 mph 8 mph 64% 0.00 in 195 W/m2
17:04 63.8 °F 51.4 °F 29.91 in ESE 3.8 mph 8.1 mph 64% 0.00 in 164 W/m2
17:09 63.5 °F 51.2 °F 29.91 in ESE 2.8 mph 8 mph 64.2% 0.00 in 132 W/m2
17:14 63.3 °F 51.1 °F 29.91 in ESE 2.5 mph 9 mph 64.5% 0.00 in 120 W/m2
17:19 63.1 °F 51.2 °F 29.91 in ESE 2.8 mph 9.2 mph 65% 0.00 in 128 W/m2
17:24 63 °F 51.1 °F 29.91 in ESE 2.9 mph 6 mph 65.2% 0.00 in 216 W/m2
17:29 62.8 °F 51.2 °F 29.92 in ESE 3.2 mph 8.1 mph 65.7% 0.00 in 260 W/m2
17:34 62.6 °F 51.2 °F 29.92 in ESE 2.2 mph 8 mph 66.2% 0.00 in 241 W/m2
17:39 62.6 °F 51.5 °F 29.91 in ESE 1.8 mph 6 mph 67% 0.00 in 232 W/m2
17:44 62.4 °F 51.1 °F 29.91 in ESE 2.2 mph 6 mph 66.5% 0.00 in 230 W/m2
17:49 62.3 °F 51.2 °F 29.91 in ESE 2.5 mph 7 mph 67% 0.00 in 144 W/m2
17:54 62.1 °F 51 °F 29.92 in SSW 1.7 mph 7 mph 67% 0.00 in 144 W/m2
17:59 62 °F 50.9 °F 29.92 in SW 1.6 mph 6 mph 67% 0.00 in 155 W/m2
18:04 61.9 °F 51.1 °F 29.91 in SW 1.1 mph 4 mph 67.9% 0.00 in 157 W/m2
18:09 61.8 °F 51.1 °F 29.91 in SSW 1.6 mph 5 mph 68% 0.00 in 243 W/m2
18:14 61.8 °F 51.1 °F 29.92 in WSW 0.8 mph 5 mph 68% 0.00 in 243 W/m2
18:19 61.8 °F 51.1 °F 29.92 in West 1 mph 5 mph 68% 0.00 in 215 W/m2
18:24 61.7 °F 51 °F 29.93 in South 0.4 mph 5 mph 67.9% 0.00 in 153 W/m2
18:29 61.6 °F 50.6 °F 29.93 in SE 2.1 mph 7 mph 67.3% 0.00 in 99 W/m2
18:34 61.5 °F 50.4 °F 29.93 in ESE 1.3 mph 7 mph 67% 0.00 in 51 W/m2
18:39 61.3 °F 50.2 °F 29.94 in ESE 2 mph 7 mph 67% 0.00 in 49 W/m2
18:44 61 °F 50.5 °F 29.94 in SE 0.3 mph 6 mph 68.1% 0.00 in 49 W/m2
18:49 60.8 °F 50.6 °F 29.94 in ESE 1.8 mph 7 mph 69% 0.00 in 40 W/m2
18:54 60.5 °F 50.3 °F 29.94 in SE 1.5 mph 7 mph 68.8% 0.00 in 40 W/m2
18:59 60.3 °F 50.1 °F 29.93 in SSE 0.6 mph 6 mph 69% 0.00 in 37 W/m2
19:04 60.1 °F 49.9 °F 29.93 in Calm   2 mph 69% 0.00 in 32 W/m2
19:09 59.9 °F 49.7 °F 29.93 in Calm     69% 0.00 in 23 W/m2
19:14 59.7 °F 49.8 °F 29.93 in SW 0.5 mph 6 mph 69.7% 0.00 in 12 W/m2
19:19 59.5 °F 49.7 °F 29.93 in SW 1.8 mph 6 mph 70% 0.00 in 12 W/m2
19:24 59.3 °F 49.5 °F 29.93 in WSW 1.5 mph 6 mph 70% 0.00 in 7 W/m2
19:29 59.1 °F 49.3 °F 29.93 in SW 1.1 mph 6 mph 70% 0.00 in 7 W/m2
19:34 58.8 °F 49.1 °F 29.94 in SSW 2.6 mph 6 mph 70.1% 0.00 in 5 W/m2
19:39 58.6 °F 49.2 °F 29.94 in SSW 1.4 mph 6 mph 71% 0.00 in 0 W/m2
19:44 58.3 °F 49.2 °F 29.94 in SSW 0.2 mph 5 mph 71.7% 0.00 in 0 W/m2
19:49 58.2 °F 49.2 °F 29.94 in East 0.3 mph 3 mph 72% 0.00 in 0 W/m2
19:54 58 °F 49.1 °F 29.94 in SE 1.2 mph 3.5 mph 72.2% 0.00 in 0 W/m2
19:59 57.7 °F 49.1 °F 29.94 in South 1.3 mph 4 mph 73% 0.00 in 0 W/m2
20:04 57.4 °F 48.8 °F 29.94 in SW 1.3 mph 5 mph 73% 0.00 in 0 W/m2
20:09 57.2 °F 48.6 °F 29.95 in WSW 0.4 mph 5 mph 73% 0.00 in 0 W/m2
20:14 57 °F 48.4 °F 29.95 in Calm   3 mph 73% 0.00 in 0 W/m2
20:19 56.7 °F 48.1 °F 29.96 in West 0.6 mph 3.5 mph 73% 0.00 in 0 W/m2
20:24 56.6 °F 48.3 °F 29.96 in SW 0.5 mph 3.5 mph 73.9% 0.00 in 0 W/m2
20:29 56.4 °F 48.4 °F 29.97 in ESE 0.2 mph 3 mph 74.4% 0.00 in 0 W/m2
20:34 56.3 °F 48.5 °F 29.97 in ESE 1.3 mph 6 mph 75% 0.00 in 0 W/m2
20:39 56 °F 48.2 °F 29.97 in ESE 0.7 mph 6 mph 75% 0.00 in 0 W/m2
20:44 55.8 °F 48 °F 29.97 in SSE 1.6 mph 7 mph 75% 0.00 in 0 W/m2
Saratoga, California, USA
Compliments of Weather Underground - 2 mb

WU-history PHP script courtesy of Juneau County Weather and modified for WU/TWC API use by Saratoga-weather.org

This script set is available on GitHub.

deformed-offering